Time;durP1;ratioP1;P1;durP2;ratioP2;P2;SDS_P1;SDS_P2;PMS_P1;PMS_P2;Temp;Humidity;BMP_temperature;BMP_pressure;BME280_temperature;BME280_humidity;BME280_pressure;Samples;Min_cycle;Max_cycle;Signal;HPM_P1;HPM_P2
2021/05/06 00:32:06;;;;;;;1.17;1.17;;;;;;;-1.01;100.00;99070.31;5012124;28;20052;-75
2021/05/06 00:35:11;;;;;;;1.30;1.30;;;;;;;-1.03;100.00;99063.72;5012412;28;20551;-77
2021/05/06 00:38:24;;;;;;;1.35;1.35;;;;;;;-1.01;100.00;99066.81;5023677;28;20064;-77
2021/05/06 01:01:20;;;;;;;1.08;1.08;;;;;;;-0.61;100.00;99052.03;5014814;28;20741;-77
2021/05/06 01:07:44;;;;;;;0.90;0.90;;;;;;;-0.58;100.00;99037.50;5015904;28;20048;-77
2021/05/06 01:14:05;;;;;;;1.48;1.48;;;;;;;-0.71;100.00;99030.34;5013879;28;20065;-76
2021/05/06 01:17:08;;;;;;;1.50;1.50;;;;;;;-0.72;100.00;99029.59;5014479;28;20241;-76
2021/05/06 01:20:13;;;;;;;1.40;1.40;;;;;;;-0.73;100.00;99022.56;5013574;28;20049;-76
2021/05/06 01:23:18;;;;;;;1.33;1.33;;;;;;;-0.74;100.00;99018.28;5014334;28;20068;-76
2021/05/06 01:26:39;;;;;;;1.23;1.23;;;;;;;-0.78;100.00;99017.59;5017226;28;20046;-77
2021/05/06 01:30:11;;;;;;;1.73;1.73;;;;;;;-0.82;100.00;99014.91;5015956;28;20064;-75
2021/05/06 01:36:33;;;;;;;1.33;1.33;;;;;;;-0.94;100.00;99012.81;5017932;28;20052;-76
2021/05/06 01:43:07;;;;;;;1.23;1.23;;;;;;;-1.03;100.00;99011.81;5011578;28;20064;-77
2021/05/06 01:59:47;;;;;;;1.10;1.10;;;;;;;-1.22;100.00;98991.47;5010869;28;20329;-77
2021/05/06 02:02:50;;;;;;;1.45;1.45;;;;;;;-1.19;100.00;98989.88;5009865;28;20747;-78
2021/05/06 02:05:55;;;;;;;1.50;1.50;;;;;;;-1.17;100.00;98993.69;5009212;28;20045;-78
2021/05/06 02:08:58;;;;;;;1.58;1.58;;;;;;;-1.11;100.00;98985.81;5010235;28;20044;-77
2021/05/06 02:12:02;;;;;;;1.15;1.15;;;;;;;-1.06;100.00;98982.59;5011295;28;20052;-77
2021/05/06 02:15:13;;;;;;;0.98;0.98;;;;;;;-0.98;100.00;98981.28;5010029;28;20064;-77
2021/05/06 02:18:18;;;;;;;1.50;1.50;;;;;;;-0.93;100.00;98975.31;5010814;28;20045;-77
2021/05/06 02:21:22;;;;;;;1.33;1.33;;;;;;;-0.88;100.00;98977.56;5009997;28;20731;-78
2021/05/06 02:24:25;;;;;;;1.13;1.13;;;;;;;-0.85;100.00;98971.28;5011674;28;20599;-77
2021/05/06 02:27:29;;;;;;;1.35;1.35;;;;;;;-0.80;100.00;98973.50;5011613;28;20037;-77
2021/05/06 02:30:32;;;;;;;1.60;1.60;;;;;;;-0.76;100.00;98968.75;5010953;28;20036;-77
2021/05/06 02:33:36;;;;;;;1.40;1.40;;;;;;;-0.74;100.00;98960.91;5016839;28;20032;-77
2021/05/06 02:36:40;;;;;;;1.40;1.40;;;;;;;-0.72;100.00;98955.78;5030515;28;20424;-77
2021/05/06 02:39:45;;;;;;;1.35;1.35;;;;;;;-0.71;100.00;98965.50;5021692;28;20036;-77
2021/05/06 02:42:49;;;;;;;1.40;1.40;;;;;;;-0.70;100.00;98956.13;5028666;28;20700;-77
2021/05/06 02:45:53;;;;;;;1.27;1.27;;;;;;;-0.66;100.00;98956.81;5028229;28;20044;-78
2021/05/06 02:48:56;;;;;;;1.60;1.60;;;;;;;-0.71;100.00;98946.38;5035332;28;20608;-78
2021/05/06 02:52:09;;;;;;;1.08;1.08;;;;;;;-0.73;100.00;98945.25;5034455;28;20044;-77
2021/05/06 03:05:21;;;;;;;0.90;0.90;;;;;;;-1.02;100.00;98928.66;5034754;28;20044;-77
2021/05/06 03:08:37;;;;;;;1.48;1.48;;;;;;;-1.10;100.00;98927.25;5033079;28;20036;-77
2021/05/06 03:11:45;;;;;;;1.30;1.30;;;;;;;-1.15;100.00;98914.09;5032124;28;20040;-78
2021/05/06 03:24:43;;;;;;;1.23;1.23;;;;;;;-1.25;100.00;98904.13;5031067;28;19908;-78
2021/05/06 03:31:12;;;;;;;1.35;1.35;;;;;;;-1.34;100.00;98912.88;5031266;28;20259;-78
2021/05/06 04:28:01;;;;;;;1.58;1.58;;;;;;;-1.77;100.00;98907.41;5027282;28;20044;-77
2021/05/06 04:37:32;;;;;;;1.17;1.17;;;;;;;-1.71;100.00;98902.25;5027379;28;20694;-76
2021/05/06 04:53:27;;;;;;;1.02;1.02;;;;;;;-1.70;100.00;98890.91;5029248;28;20052;-76
2021/05/06 04:53:57;;;;;;;1.50;1.50;;;;;;;-1.70;100.00;98887.41;5023053;28;20036;-76
2021/05/06 05:10:19;;;;;;;1.58;1.58;;;;;;;-1.64;100.00;98900.16;5023419;28;20822;-77
2021/05/06 05:26:51;;;;;;;1.33;1.33;;;;;;;-1.17;100.00;98894.63;5006334;28;20044;-77
2021/05/06 05:29:55;;;;;;;1.45;1.45;;;;;;;-1.06;100.00;98898.66;5029051;28;20047;-76
2021/05/06 05:32:59;;;;;;;1.33;1.33;;;;;;;-0.99;100.00;98906.72;5026615;28;20032;-76
2021/05/06 05:36:12;;;;;;;1.30;1.30;;;;;;;-0.85;100.00;98900.22;5025974;28;20044;-76
2021/05/06 05:39:27;;;;;;;1.40;1.40;;;;;;;-0.74;100.00;98895.28;5025328;28;20555;-76
2021/05/06 05:42:38;;;;;;;1.48;1.48;;;;;;;-0.66;100.00;98899.41;5026405;28;20048;-77
2021/05/06 05:46:55;;;;;;;1.20;1.20;;;;;;;-0.51;100.00;98897.13;5026836;28;20068;-77
2021/05/06 05:56:02;;;;;;;1.15;1.15;;;;;;;0.20;100.00;98907.16;5023519;28;20063;-76
2021/05/06 05:59:07;;;;;;;0.90;0.90;;;;;;;0.40;100.00;98916.06;5025379;28;20036;-77
2021/05/06 06:02:10;;;;;;;1.15;1.15;;;;;;;0.55;100.00;98911.75;5025528;28;20048;-77
2021/05/06 06:05:14;;;;;;;1.00;1.00;;;;;;;0.63;100.00;98908.41;5022086;28;20653;-75
2021/05/06 06:08:18;;;;;;;1.30;1.30;;;;;;;0.71;100.00;98895.28;5022268;28;20603;-75
2021/05/06 06:11:22;;;;;;;1.30;1.30;;;;;;;0.79;100.00;98893.88;5022995;28;20032;-74
2021/05/06 06:14:37;;;;;;;1.25;1.25;;;;;;;0.87;100.00;98900.72;5022088;28;20632;-76
2021/05/06 06:17:44;;;;;;;1.05;1.05;;;;;;;0.94;100.00;98906.00;5025617;28;20733;-76
2021/05/06 06:20:55;;;;;;;1.27;1.27;;;;;;;1.06;100.00;98902.50;5024798;28;20036;-76
2021/05/06 06:23:59;;;;;;;1.30;1.30;;;;;;;1.21;100.00;98908.38;5025131;28;20051;-77
2021/05/06 06:27:04;;;;;;;1.20;1.20;;;;;;;1.49;100.00;98919.28;5023703;28;20041;-77
2021/05/06 06:30:11;;;;;;;0.90;0.90;;;;;;;1.87;100.00;98915.78;5026152;28;20146;-77
2021/05/06 06:33:16;;;;;;;0.98;0.98;;;;;;;2.14;100.00;98913.38;5027265;28;20036;-77
2021/05/06 06:36:21;;;;;;;0.77;0.77;;;;;;;2.37;100.00;98921.22;5025910;28;20044;-77
2021/05/06 06:39:27;;;;;;;0.90;0.90;;;;;;;2.59;100.00;98911.06;5022585;28;20052;-78
2021/05/06 06:42:30;;;;;;;1.02;1.02;;;;;;;2.78;100.00;98918.25;5000251;28;20060;-78
2021/05/06 06:45:34;;;;;;;1.00;1.00;;;;;;;2.81;100.00;98900.88;5015710;28;20642;-78
2021/05/06 06:48:38;;;;;;;0.80;0.80;;;;;;;2.77;100.00;98911.19;5018385;28;20333;-77
2021/05/06 06:51:41;;;;;;;1.40;1.40;;;;;;;2.67;100.00;98912.34;5019096;28;20044;-77
2021/05/06 06:54:46;;;;;;;0.90;0.90;;;;;;;2.65;100.00;98920.28;5018292;28;20265;-77
2021/05/06 06:57:50;;;;;;;0.70;0.70;;;;;;;2.66;100.00;98919.06;5019719;28;20040;-76
2021/05/06 07:00:53;;;;;;;0.93;0.93;;;;;;;2.75;100.00;98923.88;5025326;28;20068;-77
2021/05/06 07:03:57;;;;;;;1.00;1.00;;;;;;;2.77;100.00;98915.94;5020763;28;20049;-77
2021/05/06 07:07:00;;;;;;;1.25;1.25;;;;;;;2.90;100.00;98914.66;5024943;28;20044;-78
2021/05/06 07:10:04;;;;;;;0.93;0.93;;;;;;;3.06;100.00;98920.00;5027476;28;20177;-78
2021/05/06 07:13:08;;;;;;;1.10;1.10;;;;;;;3.17;100.00;98921.56;5029889;28;20036;-78
2021/05/06 07:16:13;;;;;;;1.00;1.00;;;;;;;3.29;100.00;98918.00;5024207;28;20210;-77
2021/05/06 07:19:16;;;;;;;0.60;0.60;;;;;;;3.41;100.00;98915.19;5028159;28;20032;-79
2021/05/06 07:22:20;;;;;;;0.77;0.77;;;;;;;3.52;100.00;98907.28;5019551;28;20060;-79
2021/05/06 07:25:24;;;;;;;0.80;0.80;;;;;;;3.63;100.00;98915.13;5020430;28;20040;-79
2021/05/06 07:28:39;;;;;;;0.73;0.73;;;;;;;3.65;100.00;98918.19;5019618;28;20068;-79
2021/05/06 07:31:42;;;;;;;0.65;0.65;;;;;;;3.62;100.00;98919.09;5020332;28;20044;-78
2021/05/06 07:34:46;;;;;;;0.88;0.88;;;;;;;3.63;100.00;98920.66;5020821;28;20044;-80
2021/05/06 07:37:49;;;;;;;0.70;0.70;;;;;;;3.63;100.00;98909.63;5025707;28;20324;-79
2021/05/06 07:40:54;;;;;;;0.82;0.82;;;;;;;3.62;100.00;98902.56;5023092;28;20033;-79
2021/05/06 07:43:58;;;;;;;0.68;0.68;;;;;;;3.73;100.00;98905.69;5022971;28;20248;-79
2021/05/06 07:47:10;;;;;;;1.10;1.10;;;;;;;3.88;100.00;98903.91;5024012;28;20044;-79
2021/05/06 07:50:16;;;;;;;0.70;0.70;;;;;;;4.02;100.00;98897.09;5022438;28;20390;-80
2021/05/06 07:53:25;;;;;;;0.77;0.77;;;;;;;4.20;100.00;98900.66;5022774;28;20393;-79
2021/05/06 07:56:29;;;;;;;0.63;0.63;;;;;;;4.43;100.00;98894.59;5021501;28;20036;-78
2021/05/06 07:59:33;;;;;;;0.73;0.73;;;;;;;4.80;100.00;98894.59;5022587;28;20051;-79
2021/05/06 08:02:37;;;;;;;0.38;0.38;;;;;;;5.00;100.00;98892.16;5022415;28;20517;-80
2021/05/06 08:05:40;;;;;;;0.60;0.60;;;;;;;4.96;100.00;98881.25;5022622;28;20378;-78
2021/05/06 08:08:44;;;;;;;0.80;0.80;;;;;;;4.99;100.00;98879.56;5021544;28;20059;-79
2021/05/06 08:11:51;;;;;;;0.70;0.70;;;;;;;5.02;100.00;98884.19;5019606;28;20641;-80
2021/05/06 08:14:56;;;;;;;0.55;0.55;;;;;;;4.92;100.00;98885.41;5021399;28;20222;-79
2021/05/06 08:18:01;;;;;;;0.77;0.77;;;;;;;4.77;100.00;98878.97;5020079;28;20048;-79
2021/05/06 08:21:06;;;;;;;0.70;0.70;;;;;;;4.55;100.00;98884.63;5021722;28;20425;-80
2021/05/06 08:24:10;;;;;;;0.65;0.65;;;;;;;4.33;100.00;98884.75;5021986;28;20047;-79
2021/05/06 08:27:13;;;;;;;0.80;0.80;;;;;;;4.16;100.00;98877.25;5019933;28;20364;-79
2021/05/06 08:30:17;;;;;;;0.68;0.68;;;;;;;4.12;100.00;98873.84;5020872;28;20060;-79
2021/05/06 08:33:21;;;;;;;0.80;0.80;;;;;;;4.22;100.00;98878.91;5017865;28;20439;-80
2021/05/06 08:36:26;;;;;;;0.50;0.50;;;;;;;4.46;100.00;98877.13;5020595;28;20040;-79
2021/05/06 08:39:29;;;;;;;0.30;0.30;;;;;;;4.68;100.00;98876.97;5018605;28;20543;-79
2021/05/06 08:42:35;;;;;;;0.82;0.82;;;;;;;4.95;100.00;98871.47;5020134;28;20520;-79
2021/05/06 08:45:46;;;;;;;0.60;0.60;;;;;;;5.14;100.00;98874.97;5019010;28;20052;-79
2021/05/06 08:48:50;;;;;;;0.60;0.60;;;;;;;5.28;100.00;98875.06;5019723;28;20409;-78
2021/05/06 08:51:54;;;;;;;0.50;0.50;;;;;;;5.42;100.00;98868.16;5018972;28;20722;-79
2021/05/06 08:54:58;;;;;;;0.30;0.30;;;;;;;5.62;100.00;98876.69;5018132;28;20035;-79
2021/05/06 08:58:02;;;;;;;0.70;0.70;;;;;;;5.76;100.00;98875.25;5017512;28;20051;-80
2021/05/06 09:01:06;;;;;;;0.70;0.70;;;;;;;6.03;100.00;98873.16;5021715;28;20036;-77
2021/05/06 09:04:10;;;;;;;0.47;0.47;;;;;;;6.24;100.00;98876.88;5024025;28;20048;-76
2021/05/06 09:07:14;;;;;;;0.50;0.50;;;;;;;6.51;100.00;98873.16;5021918;28;20048;-77
2021/05/06 09:10:42;;;;;;;0.50;0.50;;;;;;;6.54;100.00;98869.47;5019433;28;20040;-77
2021/05/06 09:13:45;;;;;;;0.20;0.20;;;;;;;6.81;100.00;98869.25;5019627;28;20032;-77
2021/05/06 09:16:49;;;;;;;0.40;0.40;;;;;;;7.50;100.00;98874.25;5020638;28;20040;-77
2021/05/06 09:20:15;;;;;;;0.40;0.40;;;;;;;7.73;100.00;98864.31;5019406;28;20040;-76
2021/05/06 09:23:20;;;;;;;0.52;0.52;;;;;;;7.44;100.00;98865.88;5021559;28;20496;-76
2021/05/06 09:26:28;;;;;;;0.30;0.30;;;;;;;7.91;100.00;98870.38;5021825;28;20044;-76
2021/05/06 09:29:42;;;;;;;0.13;0.13;;;;;;;8.13;100.00;98867.19;5021342;28;20810;-76
2021/05/06 09:32:47;;;;;;;0.32;0.32;;;;;;;7.93;100.00;98861.59;5019759;28;20036;-76
2021/05/06 09:35:50;;;;;;;0.10;0.10;;;;;;;8.15;100.00;98862.69;5019536;28;20527;-77
2021/05/06 09:38:55;;;;;;;0.30;0.30;;;;;;;8.51;100.00;98866.22;5019740;28;20040;-76
2021/05/06 09:42:17;;;;;;;0.20;0.20;;;;;;;8.01;100.00;98873.81;5020677;28;20060;-76
2021/05/06 09:45:28;;;;;;;;;;;;;;;7.73;100.00;98864.31;5022568;28;20055;-76
2021/05/06 09:48:32;;;;;;;0.20;0.20;;;;;;;8.06;100.00;98864.78;5019748;28;20174;-76
2021/05/06 09:51:48;;;;;;;0.30;0.30;;;;;;;8.13;100.00;98864.41;5019946;28;20032;-76
2021/05/06 09:54:54;;;;;;;0.13;0.13;;;;;;;8.71;100.00;98868.97;5017536;28;20068;-75
2021/05/06 09:58:15;;;;;;;0.20;0.20;;;;;;;8.57;100.00;98865.03;5019334;28;20032;-75
2021/05/06 10:01:22;;;;;;;0.17;0.17;;;;;;;8.32;100.00;98883.13;5019195;28;20891;-75
2021/05/06 10:04:26;;;;;;;0.20;0.20;;;;;;;8.17;100.00;98867.72;5019900;28;20448;-74
2021/05/06 10:07:30;;;;;;;0.20;0.20;;;;;;;7.81;100.00;98865.44;5019440;28;20063;-76
2021/05/06 10:10:35;;;;;;;0.25;0.25;;;;;;;7.28;100.00;98871.09;5019350;28;20044;-77
2021/05/06 10:13:41;;;;;;;0.57;0.22;;;;;;;7.11;100.00;98875.59;5020849;28;20052;-76
2021/05/06 10:16:44;;;;;;;0.30;0.30;;;;;;;7.47;100.00;98864.91;5022078;28;20048;-75
2021/05/06 10:19:50;;;;;;;0.25;0.25;;;;;;;7.99;100.00;98868.00;5021943;28;20147;-77
2021/05/06 10:22:56;;;;;;;0.10;0.10;;;;;;;8.66;100.00;98862.13;5019813;28;20333;-76
2021/05/06 10:26:01;;;;;;;0.20;0.20;;;;;;;8.55;100.00;98866.75;5019225;28;20036;-76
2021/05/06 10:29:06;;;;;;;0.30;0.30;;;;;;;8.95;100.00;98856.38;5029045;28;20040;-76
2021/05/06 10:32:12;;;;;;;0.10;0.10;;;;;;;8.77;100.00;98862.22;5024977;28;20043;-76
2021/05/06 10:35:21;;;;;;;0.20;0.20;;;;;;;8.99;100.00;98858.94;5005924;28;20041;-76
2021/05/06 10:38:34;;;;;;;0.22;0.22;;;;;;;9.38;100.00;98851.75;4997744;28;20068;-75
2021/05/06 10:41:38;;;;;;;0.10;0.10;;;;;;;9.01;100.00;98854.41;4999216;28;20049;-76
2021/05/06 10:44:41;;;;;;;0.20;0.20;;;;;;;8.82;100.00;98858.00;4996143;28;20052;-76
2021/05/06 10:47:55;;;;;;;0.30;0.30;;;;;;;9.09;100.00;98857.53;4998899;28;20041;-76
2021/05/06 10:50:59;;;;;;;0.20;0.20;;;;;;;9.45;100.00;98859.66;4998003;28;20057;-76
2021/05/06 10:54:41;;;;;;;0.20;0.20;;;;;;;9.71;100.00;98854.03;4998216;28;20033;-76
2021/05/06 10:57:45;;;;;;;0.10;0.10;;;;;;;9.93;100.00;98859.78;4996461;28;20044;-76
2021/05/06 11:01:05;;;;;;;0.13;0.13;;;;;;;10.40;100.00;98869.44;5000328;28;20060;-76
2021/05/06 11:04:10;;;;;;;0.10;0.10;;;;;;;9.87;100.00;98867.31;4996623;28;20076;-79
2021/05/06 11:07:18;;;;;;;0.10;0.10;;;;;;;9.74;100.00;98878.09;5002391;28;20060;-77
2021/05/06 11:10:23;;;;;;;0.20;0.20;;;;;;;9.45;100.00;98878.34;5001936;28;20048;-75
2021/05/06 11:13:29;;;;;;;0.15;0.15;;;;;;;9.15;100.00;98881.34;5002061;28;20049;-78
2021/05/06 11:16:35;;;;;;;0.10;0.10;;;;;;;9.20;100.00;98881.88;5005218;28;20341;-76
2021/05/06 11:19:40;;;;;;;0.20;0.20;;;;;;;9.11;100.00;98882.81;5001602;28;20041;-75
2021/05/06 11:22:46;;;;;;;0.13;0.13;;;;;;;8.66;100.00;98876.00;5006674;28;20040;-76
2021/05/06 11:25:53;;;;;;;0.10;0.10;;;;;;;8.71;100.00;98886.38;5006821;28;20045;-76
2021/05/06 11:28:57;;;;;;;0.38;0.38;;;;;;;8.84;100.00;98884.03;5007616;28;20056;-76
2021/05/06 11:32:01;;;;;;;0.13;0.13;;;;;;;8.82;100.00;98885.75;5007398;28;20052;-76
2021/05/06 11:35:06;;;;;;;0.30;0.30;;;;;;;8.84;100.00;98889.56;5027261;28;20032;-76
2021/05/06 11:38:10;;;;;;;0.20;0.20;;;;;;;8.72;100.00;98887.16;5025087;28;20411;-76
2021/05/06 11:41:13;;;;;;;0.20;0.20;;;;;;;8.70;100.00;98884.09;5026775;28;20048;-77
2021/05/06 11:44:19;;;;;;;0.10;0.10;;;;;;;8.71;100.00;98875.28;5031385;28;20055;-77
2021/05/06 11:47:27;;;;;;;0.10;0.10;;;;;;;8.89;100.00;98869.44;5030420;28;20738;-74
2021/05/06 11:50:33;;;;;;;0.10;0.10;;;;;;;8.98;100.00;98876.84;5029584;28;20037;-75
2021/05/06 11:53:41;;;;;;;0.20;0.20;;;;;;;9.22;100.00;98869.03;5031873;28;20032;-75
2021/05/06 11:57:02;;;;;;;0.28;0.28;;;;;;;9.68;100.00;98869.69;5026678;28;20985;-75
2021/05/06 12:00:06;;;;;;;0.10;0.10;;;;;;;10.10;100.00;98857.88;5025029;28;20531;-75
2021/05/06 12:03:11;;;;;;;0.10;0.10;;;;;;;10.31;100.00;98864.84;5028375;28;20072;-75
2021/05/06 12:06:26;;;;;;;0.20;0.20;;;;;;;10.66;100.00;98854.13;5027952;28;21063;-75
2021/05/06 12:09:30;;;;;;;0.10;0.10;;;;;;;11.01;100.00;98850.94;5026472;28;20053;-75
2021/05/06 12:12:34;;;;;;;0.10;0.10;;;;;;;10.60;100.00;98855.38;5026380;28;20044;-77
2021/05/06 12:15:38;;;;;;;0.10;0.10;;;;;;;9.77;100.00;98863.19;5026707;28;20060;-76
2021/05/06 12:18:42;;;;;;;0.10;0.10;;;;;;;9.09;100.00;98866.66;5028721;28;20036;-75
2021/05/06 12:21:58;;;;;;;0.10;0.10;;;;;;;8.58;100.00;98872.09;5025084;28;20036;-76
2021/05/06 12:25:02;;;;;;;0.10;0.10;;;;;;;8.08;100.00;98862.31;5024492;28;20097;-76
2021/05/06 12:28:16;;;;;;;0.20;0.20;;;;;;;8.04;100.00;98850.66;5017808;28;20036;-82
2021/05/06 12:31:42;;;;;;;;;;;;;;;;;;;;;
2021/05/06 12:34:58;;;;;;;;;;;;;;;;;;;;;
2021/05/06 12:38:02;;;;;;;0.20;0.20;;;;;;;10.04;100.00;98848.72;5029451;28;20779;-82
2021/05/06 12:41:09;;;;;;;0.10;0.10;;;;;;;10.36;100.00;98841.09;5031021;28;20056;-82
2021/05/06 12:44:48;;;;;;;;;;;;;;;;;;;;;
2021/05/06 12:47:57;;;;;;;0.17;0.17;;;;;;;10.66;100.00;98840.22;5028641;28;20039;-82
2021/05/06 12:51:02;;;;;;;0.10;0.10;;;;;;;10.37;100.00;98848.94;5054400;28;20468;-83
2021/05/06 12:54:12;;;;;;;0.10;0.08;;;;;;;10.26;100.00;98843.31;5053249;28;20044;-84
2021/05/06 12:57:16;;;;;;;0.10;0.10;;;;;;;10.37;100.00;98843.38;5054125;28;20048;-83
2021/05/06 13:00:21;;;;;;;0.10;0.10;;;;;;;10.38;100.00;98856.03;5053442;28;20052;-84
2021/05/06 13:03:33;;;;;;;0.10;0.10;;;;;;;10.54;100.00;98849.03;5054108;28;20044;-83
2021/05/06 13:06:36;;;;;;;0.10;0.10;;;;;;;10.79;100.00;98850.13;5054620;28;20397;-85
2021/05/06 13:09:42;;;;;;;0.10;0.10;;;;;;;10.88;100.00;98855.47;5069274;28;20051;-81
2021/05/06 13:12:45;;;;;;;0.30;0.30;;;;;;;11.05;100.00;98842.34;5074084;28;20044;-84
2021/05/06 13:15:52;;;;;;;0.10;0.10;;;;;;;11.36;99.82;98842.16;5073944;28;20721;-84
2021/05/06 13:19:01;;;;;;;0.10;0.10;;;;;;;11.80;100.00;98839.38;5076099;28;20051;-78
2021/05/06 13:22:11;;;;;;;0.20;0.20;;;;;;;12.22;100.00;98832.72;5073601;28;20056;-79
2021/05/06 13:25:15;;;;;;;0.10;0.10;;;;;;;12.17;94.22;98830.72;5072861;28;20500;-84
2021/05/06 13:28:34;;;;;;;0.10;0.10;;;;;;;11.40;99.35;98835.06;5073609;28;20280;-83
2021/05/06 13:31:39;;;;;;;0.10;0.10;;;;;;;10.43;98.85;98846.94;5072722;28;20055;-85
2021/05/06 13:34:53;;;;;;;0.10;0.10;;;;;;;9.64;100.00;98844.13;5073234;28;20499;-84
2021/05/06 13:37:57;;;;;;;0.10;0.10;;;;;;;9.25;100.00;98845.81;5073994;28;20411;-84
2021/05/06 13:41:00;;;;;;;0.15;0.15;;;;;;;8.91;100.00;98850.28;5073871;28;20401;-82
2021/05/06 13:44:05;;;;;;;0.20;0.20;;;;;;;8.66;100.00;98861.34;5074062;28;20099;-84
2021/05/06 13:47:10;;;;;;;0.13;0.13;;;;;;;8.55;100.00;98867.53;5073103;28;20519;-83
2021/05/06 13:50:15;;;;;;;0.13;0.13;;;;;;;8.51;100.00;98877.31;5073158;28;20059;-82
2021/05/06 13:53:18;;;;;;;0.20;0.20;;;;;;;8.39;100.00;98885.47;5068304;28;20112;-75
2021/05/06 13:56:22;;;;;;;0.10;0.10;;;;;;;8.65;100.00;98893.88;5033056;28;20044;-77
2021/05/06 13:59:26;;;;;;;0.20;0.20;;;;;;;8.60;100.00;98879.94;5034694;28;20048;-76
2021/05/06 14:02:29;;;;;;;0.25;0.25;;;;;;;8.65;100.00;98877.22;5041014;28;20052;-75
2021/05/06 14:05:33;;;;;;;0.10;0.10;;;;;;;8.75;100.00;98886.94;5047189;28;20052;-78
2021/05/06 14:08:37;;;;;;;0.20;0.20;;;;;;;8.89;100.00;98888.88;5039519;28;20048;-77
2021/05/06 14:11:41;;;;;;;0.20;0.20;;;;;;;9.02;100.00;98880.94;5044097;28;20048;-77
2021/05/06 14:14:44;;;;;;;0.20;0.20;;;;;;;9.27;100.00;98876.66;5055846;28;20531;-76
2021/05/06 14:17:48;;;;;;;0.20;0.20;;;;;;;9.71;100.00;98881.84;5054391;28;20048;-76
2021/05/06 14:20:53;;;;;;;0.10;0.10;;;;;;;9.99;100.00;98874.47;5055027;28;20055;-78
2021/05/06 14:23:56;;;;;;;0.15;0.15;;;;;;;10.29;100.00;98870.16;5054830;28;20051;-76
2021/05/06 14:27:01;;;;;;;0.10;0.10;;;;;;;10.46;100.00;98864.69;5056225;28;20052;-76
2021/05/06 14:30:05;;;;;;;0.17;0.17;;;;;;;10.15;100.00;98873.88;5051806;28;20052;-76
2021/05/06 14:33:09;;;;;;;0.10;0.10;;;;;;;9.79;100.00;98880.13;5052191;28;20052;-77
2021/05/06 14:36:13;;;;;;;0.20;0.20;;;;;;;9.15;100.00;98898.00;5052938;28;20051;-75
2021/05/06 14:39:16;;;;;;;0.10;0.10;;;;;;;8.58;100.00;98916.50;5052820;28;20044;-74
2021/05/06 14:42:20;;;;;;;0.20;0.20;;;;;;;7.98;100.00;98935.75;5052194;28;20046;-74
2021/05/06 14:45:24;;;;;;;0.10;0.10;;;;;;;7.45;100.00;98944.94;5058153;28;20108;-75
2021/05/06 14:48:27;;;;;;;0.10;0.10;;;;;;;6.94;100.00;98950.00;5056359;28;20048;-74
2021/05/06 14:51:31;;;;;;;0.20;0.20;;;;;;;6.51;100.00;98956.13;5057131;28;20759;-74
2021/05/06 14:54:37;;;;;;;0.25;0.25;;;;;;;6.13;100.00;98964.31;5056446;28;20040;-75
2021/05/06 14:57:41;;;;;;;0.50;0.50;;;;;;;5.85;100.00;98960.88;5057234;28;20044;-75
2021/05/06 15:00:45;;;;;;;0.30;0.30;;;;;;;5.52;100.00;98955.25;5057883;28;20056;-76
2021/05/06 15:03:48;;;;;;;0.52;0.52;;;;;;;5.41;100.00;98938.41;5056631;28;20048;-76
2021/05/06 15:06:52;;;;;;;0.50;0.50;;;;;;;5.49;100.00;98942.38;5056518;28;20055;-75
2021/05/06 15:09:55;;;;;;;0.57;0.57;;;;;;;5.75;100.00;98932.50;5056565;28;20056;-74
2021/05/06 15:12:59;;;;;;;0.60;0.60;;;;;;;5.91;100.00;98929.38;5056202;28;20048;-76
2021/05/06 15:16:03;;;;;;;0.50;0.50;;;;;;;6.36;100.00;98935.94;5056211;28;20497;-75
2021/05/06 15:19:07;;;;;;;0.20;0.20;;;;;;;6.90;100.00;98927.28;5056645;28;20048;-75
2021/05/06 15:22:10;;;;;;;0.50;0.50;;;;;;;6.90;100.00;98921.75;5057405;28;20080;-77
2021/05/06 15:25:14;;;;;;;0.55;0.55;;;;;;;6.75;100.00;98921.72;5057510;28;20048;-76
2021/05/06 15:28:18;;;;;;;0.47;0.47;;;;;;;7.22;100.00;98926.41;5056173;28;20048;-74
2021/05/06 15:31:21;;;;;;;0.28;0.28;;;;;;;7.28;100.00;98918.94;5055287;28;20064;-74
2021/05/06 15:34:24;;;;;;;0.68;0.68;;;;;;;7.38;100.00;98922.41;5055776;28;20044;-75
2021/05/06 15:37:28;;;;;;;0.35;0.35;;;;;;;7.27;100.00;98917.44;5055947;28;20048;-75
2021/05/06 15:40:32;;;;;;;0.32;0.32;;;;;;;7.32;100.00;98908.44;5056251;28;20044;-77
2021/05/06 15:43:35;;;;;;;0.20;0.20;;;;;;;7.59;100.00;98912.94;5056331;28;20044;-77
2021/05/06 15:46:39;;;;;;;8.35;0.73;;;;;;;7.63;100.00;98914.28;5056046;28;20056;-76
2021/05/06 15:49:42;;;;;;;0.38;0.38;;;;;;;7.24;100.00;98910.06;5055446;28;20040;-76
2021/05/06 15:52:48;;;;;;;0.40;0.40;;;;;;;6.85;100.00;98919.63;5055419;28;20036;-75
2021/05/06 15:55:51;;;;;;;0.40;0.40;;;;;;;6.39;100.00;98932.25;5054596;28;20052;-76
2021/05/06 15:58:56;;;;;;;0.50;0.50;;;;;;;6.06;100.00;98948.84;5055996;28;20052;-76
2021/05/06 16:02:00;;;;;;;0.30;0.30;;;;;;;5.71;100.00;98951.22;5054767;28;20052;-76
2021/05/06 16:05:07;;;;;;;0.63;0.63;;;;;;;5.47;100.00;98944.84;5054938;28;20112;-76
2021/05/06 16:08:14;;;;;;;0.60;0.60;;;;;;;5.33;100.00;98954.50;5061797;28;20431;-76
2021/05/06 16:11:28;;;;;;;;;;;;;;;;;;;;;
2021/05/06 16:14:31;;;;;;;0.60;0.60;;;;;;;5.83;100.00;98925.41;5055133;28;20056;-76
2021/05/06 16:17:35;;;;;;;0.80;0.80;;;;;;;6.26;100.00;98928.94;5054570;28;20052;-77
2021/05/06 16:20:44;;;;;;;0.60;0.60;;;;;;;6.86;100.00;98926.72;5055301;28;20044;-77
2021/05/06 16:24:54;;;;;;;0.40;0.40;;;;;;;7.12;100.00;98927.72;5050928;28;20060;-77
2021/05/06 16:28:09;;;;;;;0.30;0.30;;;;;;;7.22;100.00;98915.31;5054144;28;20353;-77
2021/05/06 16:31:12;;;;;;;0.60;0.60;;;;;;;7.23;100.00;98918.88;5056206;28;20052;-77
2021/05/06 16:34:22;;;;;;;0.40;0.40;;;;;;;7.16;100.00;98911.69;5048703;28;20040;-77
2021/05/06 16:37:42;;;;;;;0.73;0.73;;;;;;;7.57;100.00;98913.44;5057202;28;20409;-78
2021/05/06 16:40:53;;;;;;;0.20;0.20;;;;;;;8.01;100.00;98904.31;5060415;28;20505;-77
2021/05/06 16:44:05;;;;;;;0.43;0.43;;;;;;;7.85;100.00;98907.56;5050038;28;20392;-77
2021/05/06 16:47:10;;;;;;;0.57;0.57;;;;;;;7.78;100.00;98905.19;5073753;28;20052;-74
2021/05/06 16:50:16;;;;;;;0.70;0.70;;;;;;;7.54;100.00;98902.53;5063470;28;20055;-78
2021/05/06 16:53:19;;;;;;;1.45;0.70;;;;;;;7.46;100.00;98904.94;5056177;28;20072;-77
2021/05/06 16:56:23;;;;;;;0.50;0.50;;;;;;;7.37;100.00;98913.31;5062429;28;20116;-77
2021/05/06 16:59:27;;;;;;;0.20;0.20;;;;;;;7.49;100.00;98906.72;5056609;28;20146;-77
2021/05/06 17:02:31;;;;;;;0.20;0.20;;;;;;;7.71;100.00;98913.91;5066378;28;20047;-76
2021/05/06 17:05:46;;;;;;;;;;;;;;;;;;;;;
2021/05/06 17:08:50;;;;;;;0.45;0.45;;;;;;;7.52;100.00;98910.56;5054087;28;20532;-77
2021/05/06 17:11:55;;;;;;;0.60;0.60;;;;;;;7.45;100.00;98917.25;5061872;28;20044;-76
2021/05/06 17:15:01;;;;;;;0.43;0.43;;;;;;;7.43;100.00;98927.25;5056667;28;20052;-74
2021/05/06 17:18:06;;;;;;;1.17;1.10;;;;;;;7.21;100.00;98935.94;5052409;28;20492;-75
2021/05/06 17:21:09;;;;;;;7.80;0.70;;;;;;;7.00;100.00;98931.50;5055306;28;20504;-77
2021/05/06 17:24:13;;;;;;;9.95;0.80;;;;;;;6.81;100.00;98930.13;5064269;28;20056;-76
2021/05/06 17:27:17;;;;;;;2.45;0.77;;;;;;;6.62;100.00;98934.25;5071408;28;20411;-72
2021/05/06 17:30:21;;;;;;;2.03;0.85;;;;;;;6.42;100.00;98947.88;5073497;28;20051;-75
2021/05/06 17:33:24;;;;;;;0.60;0.60;;;;;;;6.28;100.00;98951.34;5057372;28;20043;-76
2021/05/06 17:36:29;;;;;;;5.15;2.75;;;;;;;6.13;100.00;98975.38;5062330;28;20044;-75
2021/05/06 17:39:36;;;;;;;0.68;0.68;;;;;;;5.92;100.00;99011.06;5041892;28;20047;-77
2021/05/06 17:42:41;;;;;;;8.73;1.85;;;;;;;5.17;100.00;99025.81;5075131;28;20075;-78
2021/05/06 17:45:44;;;;;;;1.95;0.90;;;;;;;4.53;100.00;99019.41;5069905;28;20052;-78
2021/05/06 17:48:48;;;;;;;1.35;1.35;;;;;;;4.19;100.00;99028.63;5055886;28;20047;-79
2021/05/06 17:51:53;;;;;;;6.22;1.95;;;;;;;4.11;100.00;99026.59;5048083;28;20059;-80
2021/05/06 17:54:57;;;;;;;2.58;2.30;;;;;;;4.12;100.00;99011.59;5074672;28;20048;-80
2021/05/06 17:58:09;;;;;;;4.85;1.17;;;;;;;4.15;100.00;99011.47;5050806;28;20059;-79
2021/05/06 18:01:18;;;;;;;1.20;1.20;;;;;;;4.18;100.00;99010.56;5057061;28;20060;-81
2021/05/06 18:04:22;;;;;;;1.02;0.85;;;;;;;4.19;100.00;99023.13;5063147;28;20048;-81
2021/05/06 18:07:26;;;;;;;1.20;1.20;;;;;;;4.18;100.00;99021.56;5072876;28;20047;-80
2021/05/06 18:10:48;;;;;;;1.08;1.08;;;;;;;4.21;100.00;99030.94;5062265;28;20044;-80